Te Rere — ZM9869 — position and weather

sailwx.info

Track history (hours):
 
Tides and Currents Weather Stations Pressure Air Temp Water Temp Dewpoint Dewpoint Depression Visibility Wind Speed Wind Dir Waves Ship Positions

Te Rere

Last reported at 2017-Oct-26 23:12 UTC. Time now 2017-Nov-18 06:58 UTC.
Position N 28°18' W 015°41'.
Warning: this ship's position is 22 days out of date.

Length 12 m.

Type: Pleasure craft. MMSI: 512006079.

Date/timePositionNaut miles runAvg speedWind from/ knotsBaromVisibWave heightAir tempDewpointWater temp
2017-Oct-26 23:12N 28°18' W 015°41'1 3.6
2017-Oct-26 23:00N 28°17' W 015°40'4 3.2
2017-Oct-26 21:54N 28°16' W 015°36'2 4.1
2017-Oct-26 21:23N 28°15' W 015°34'2 4.3
2017-Oct-26 21:01N 28°15' W 015°32'2 3.3
2017-Oct-26 20:31N 28°14' W 015°30'3 5.0
2017-Oct-26 20:00N 28°13' W 015°28'3 5.0
2017-Oct-26 19:25N 28°12' W 015°25'2 5.1
2017-Oct-26 19:00N 28°11' W 015°23'2 4.6
2017-Oct-26 18:30N 28°10' W 015°21'2 4.4
2017-Oct-26 18:01N 28°09' W 015°18'2 4.3
2017-Oct-26 17:29N 28°09' W 015°16'2 4.1
2017-Oct-26 17:01N 28°10' W 015°14'2 4.0
2017-Oct-26 16:30N 28°10' W 015°11'2 4.2
2017-Oct-26 16:01N 28°10' W 015°09'2 4.2
2017-Oct-26 15:31N 28°10' W 015°07'2 4.5
2017-Oct-26 15:00N 28°10' W 015°04'2 4.1
2017-Oct-26 14:31N 28°10' W 015°02'2 4.8
2017-Oct-26 14:01N 28°10' W 014°59'3 5.2
2017-Oct-26 13:29N 28°10' W 014°56'2 5.1
2017-Oct-26 13:00N 28°09' W 014°53'  
2017-Oct-19 13:12N 28°55' W 013°36'1 5.8
2017-Oct-19 12:57N 28°56' W 013°35'2 5.1
2017-Oct-19 12:30N 28°57' W 013°32'1 2.6
2017-Oct-19 12:00N 28°58' W 013°32'0 0.6
2017-Oct-19 11:29N 28°58' W 013°32'0 0.0
2017-Oct-19 10:59N 28°58' W 013°32'  
Track history (hours):
 
Tides and Currents Weather Stations Pressure Air Temp Water Temp Dewpoint Dewpoint Depression Visibility Wind Speed Wind Dir Waves Ship Positions

Te Rere

Last reported at 2017-Oct-26 23:12 UTC. Time now 2017-Nov-18 06:58 UTC.
Position N 28°18' W 015°41'.
Warning: this ship's position is 22 days out of date.

Length 12 m.

Type: Pleasure craft. MMSI: 512006079.

Date/timePositionNaut miles runAvg speedWind from/ knotsBaromVisibWave heightAir tempDewpointWater temp
2017-Oct-26 23:12N 28°18' W 015°41'1 3.6
2017-Oct-26 23:00N 28°17' W 015°40'4 3.2
2017-Oct-26 21:54N 28°16' W 015°36'2 4.1
2017-Oct-26 21:23N 28°15' W 015°34'2 4.3
2017-Oct-26 21:01N 28°15' W 015°32'2 3.3
2017-Oct-26 20:31N 28°14' W 015°30'3 5.0
2017-Oct-26 20:00N 28°13' W 015°28'3 5.0
2017-Oct-26 19:25N 28°12' W 015°25'2 5.1
2017-Oct-26 19:00N 28°11' W 015°23'2 4.6
2017-Oct-26 18:30N 28°10' W 015°21'2 4.4
2017-Oct-26 18:01N 28°09' W 015°18'2 4.3
2017-Oct-26 17:29N 28°09' W 015°16'2 4.1
2017-Oct-26 17:01N 28°10' W 015°14'2 4.0
2017-Oct-26 16:30N 28°10' W 015°11'2 4.2
2017-Oct-26 16:01N 28°10' W 015°09'2 4.2
2017-Oct-26 15:31N 28°10' W 015°07'2 4.5
2017-Oct-26 15:00N 28°10' W 015°04'2 4.1
2017-Oct-26 14:31N 28°10' W 015°02'2 4.8
2017-Oct-26 14:01N 28°10' W 014°59'3 5.2
2017-Oct-26 13:29N 28°10' W 014°56'2 5.1
2017-Oct-26 13:00N 28°09' W 014°53'  
2017-Oct-19 13:12N 28°55' W 013°36'1 5.8
2017-Oct-19 12:57N 28°56' W 013°35'2 5.1
2017-Oct-19 12:30N 28°57' W 013°32'1 2.6
2017-Oct-19 12:00N 28°58' W 013°32'0 0.6
2017-Oct-19 11:29N 28°58' W 013°32'0 0.0
2017-Oct-19 10:59N 28°58' W 013°32'  

Dump ship's entire track history